sensor_id;sensor_type;location;lat;lon;timestamp;P1;durP1;ratioP1;P2;durP2;ratioP2
59770;SDS011;45649;53.014;6.600;2022-08-11T00:02:44;6.10;;;5.60;;
59770;SDS011;45649;53.014;6.600;2022-08-11T00:05:15;6.00;;;5.50;;
59770;SDS011;45649;53.014;6.600;2022-08-11T00:07:45;6.20;;;5.60;;
59770;SDS011;45649;53.014;6.600;2022-08-11T00:10:17;5.63;;;5.17;;
59770;SDS011;45649;53.014;6.600;2022-08-11T00:13:04;5.90;;;5.50;;
59770;SDS011;45649;53.014;6.600;2022-08-11T00:15:42;5.87;;;5.37;;
59770;SDS011;45649;53.014;6.600;2022-08-11T00:18:09;5.87;;;5.43;;
59770;SDS011;45649;53.014;6.600;2022-08-11T00:20:37;6.40;;;5.90;;
59770;SDS011;45649;53.014;6.600;2022-08-11T00:23:06;5.67;;;5.17;;
59770;SDS011;45649;53.014;6.600;2022-08-11T00:25:48;5.97;;;5.47;;
59770;SDS011;45649;53.014;6.600;2022-08-11T00:28:29;5.90;;;5.40;;
59770;SDS011;45649;53.014;6.600;2022-08-11T00:31:00;5.63;;;5.23;;
59770;SDS011;45649;53.014;6.600;2022-08-11T00:33:33;5.83;;;5.43;;
59770;SDS011;45649;53.014;6.600;2022-08-11T00:36:04;5.97;;;5.47;;
59770;SDS011;45649;53.014;6.600;2022-08-11T00:38:31;6.50;;;5.90;;
59770;SDS011;45649;53.014;6.600;2022-08-11T00:49:58;6.90;;;6.30;;
59770;SDS011;45649;53.014;6.600;2022-08-11T00:55:55;7.20;;;6.60;;
59770;SDS011;45649;53.014;6.600;2022-08-11T00:58:36;7.50;;;6.90;;
59770;SDS011;45649;53.014;6.600;2022-08-11T01:18:52;8.53;;;7.70;;
59770;SDS011;45649;53.014;6.600;2022-08-11T01:27:18;8.80;;;8.10;;
59770;SDS011;45649;53.014;6.600;2022-08-11T01:47:31;9.00;;;8.20;;
59770;SDS011;45649;53.014;6.600;2022-08-11T01:50:30;8.80;;;8.00;;
59770;SDS011;45649;53.014;6.600;2022-08-11T01:58:37;9.77;;;8.77;;
59770;SDS011;45649;53.014;6.600;2022-08-11T02:03:53;10.30;;;9.40;;
59770;SDS011;45649;53.014;6.600;2022-08-11T02:11:49;9.73;;;8.83;;
59770;SDS011;45649;53.014;6.600;2022-08-11T02:19:48;9.50;;;8.80;;
59770;SDS011;45649;53.014;6.600;2022-08-11T02:48:20;10.60;;;9.70;;
59770;SDS011;45649;53.014;6.600;2022-08-11T02:59:31;10.17;;;9.27;;
59770;SDS011;45649;53.014;6.600;2022-08-11T03:10:58;11.70;;;10.60;;
59770;SDS011;45649;53.014;6.600;2022-08-11T03:17:29;11.60;;;10.60;;
59770;SDS011;45649;53.014;6.600;2022-08-11T03:23:02;11.13;;;10.13;;
59770;SDS011;45649;53.014;6.600;2022-08-11T03:31:27;10.90;;;9.97;;
59770;SDS011;45649;53.014;6.600;2022-08-11T03:34:16;8.67;;;7.97;;
59770;SDS011;45649;53.014;6.600;2022-08-11T03:50:42;8.43;;;7.77;;
59770;SDS011;45649;53.014;6.600;2022-08-11T04:10:06;7.40;;;6.80;;
59770;SDS011;45649;53.014;6.600;2022-08-11T04:18:49;10.02;;;9.10;;
59770;SDS011;45649;53.014;6.600;2022-08-11T04:35:18;8.37;;;7.70;;
59770;SDS011;45649;53.014;6.600;2022-08-11T04:40:53;8.67;;;7.97;;
59770;SDS011;45649;53.014;6.600;2022-08-11T05:04:10;10.43;;;9.43;;
59770;SDS011;45649;53.014;6.600;2022-08-11T05:15:12;12.20;;;11.00;;
59770;SDS011;45649;53.014;6.600;2022-08-11T05:18:23;12.43;;;11.33;;
59770;SDS011;45649;53.014;6.600;2022-08-11T05:21:08;12.33;;;11.23;;
59770;SDS011;45649;53.014;6.600;2022-08-11T05:24:02;12.23;;;10.93;;
59770;SDS011;45649;53.014;6.600;2022-08-11T05:27:07;11.90;;;10.80;;
59770;SDS011;45649;53.014;6.600;2022-08-11T05:30:00;12.20;;;11.03;;
59770;SDS011;45649;53.014;6.600;2022-08-11T05:32:45;11.60;;;10.60;;
59770;SDS011;45649;53.014;6.600;2022-08-11T05:35:48;10.80;;;9.87;;
59770;SDS011;45649;53.014;6.600;2022-08-11T05:38:26;12.33;;;11.03;;
59770;SDS011;45649;53.014;6.600;2022-08-11T05:41:12;10.90;;;10.00;;
59770;SDS011;45649;53.014;6.600;2022-08-11T05:43:59;12.63;;;11.53;;
59770;SDS011;45649;53.014;6.600;2022-08-11T05:46:44;12.97;;;11.70;;
59770;SDS011;45649;53.014;6.600;2022-08-11T05:49:30;12.27;;;11.27;;
59770;SDS011;45649;53.014;6.600;2022-08-11T05:52:17;12.20;;;11.10;;
59770;SDS011;45649;53.014;6.600;2022-08-11T05:55:05;12.43;;;11.23;;
59770;SDS011;45649;53.014;6.600;2022-08-11T05:57:58;12.03;;;10.83;;
59770;SDS011;45649;53.014;6.600;2022-08-11T06:00:27;13.73;;;12.48;;
59770;SDS011;45649;53.014;6.600;2022-08-11T06:02:56;13.03;;;11.77;;
59770;SDS011;45649;53.014;6.600;2022-08-11T06:05:35;12.03;;;10.83;;
59770;SDS011;45649;53.014;6.600;2022-08-11T06:08:02;12.60;;;11.30;;
59770;SDS011;45649;53.014;6.600;2022-08-11T06:10:33;11.43;;;10.43;;
59770;SDS011;45649;53.014;6.600;2022-08-11T06:13:05;12.20;;;11.17;;
59770;SDS011;45649;53.014;6.600;2022-08-11T06:15:32;11.20;;;10.23;;
59770;SDS011;45649;53.014;6.600;2022-08-11T06:18:08;13.33;;;11.93;;
59770;SDS011;45649;53.014;6.600;2022-08-11T06:20:44;12.40;;;11.30;;
59770;SDS011;45649;53.014;6.600;2022-08-11T06:23:14;11.03;;;10.03;;
59770;SDS011;45649;53.014;6.600;2022-08-11T06:25:44;11.30;;;10.30;;
59770;SDS011;45649;53.014;6.600;2022-08-11T06:28:11;13.13;;;11.93;;
59770;SDS011;45649;53.014;6.600;2022-08-11T06:30:40;13.25;;;12.05;;
59770;SDS011;45649;53.014;6.600;2022-08-11T06:33:13;13.10;;;11.80;;
59770;SDS011;45649;53.014;6.600;2022-08-11T06:46:42;11.50;;;10.33;;
59770;SDS011;45649;53.014;6.600;2022-08-11T06:49:12;9.50;;;8.50;;
59770;SDS011;45649;53.014;6.600;2022-08-11T06:52:06;10.23;;;9.23;;
59770;SDS011;45649;53.014;6.600;2022-08-11T06:54:38;9.77;;;8.93;;
59770;SDS011;45649;53.014;6.600;2022-08-11T06:57:11;8.70;;;8.00;;
59770;SDS011;45649;53.014;6.600;2022-08-11T06:59:58;8.83;;;8.13;;
59770;SDS011;45649;53.014;6.600;2022-08-11T07:05:47;8.13;;;7.53;;
59770;SDS011;45649;53.014;6.600;2022-08-11T07:14:30;6.47;;;5.90;;
59770;SDS011;45649;53.014;6.600;2022-08-11T07:17:16;6.70;;;6.10;;
59770;SDS011;45649;53.014;6.600;2022-08-11T07:20:07;5.97;;;5.40;;
59770;SDS011;45649;53.014;6.600;2022-08-11T07:22:53;5.40;;;4.90;;
59770;SDS011;45649;53.014;6.600;2022-08-11T07:25:40;6.57;;;4.57;;
59770;SDS011;45649;53.014;6.600;2022-08-11T07:28:27;4.50;;;4.10;;
59770;SDS011;45649;53.014;6.600;2022-08-11T07:31:15;3.97;;;3.70;;
59770;SDS011;45649;53.014;6.600;2022-08-11T07:33:58;3.73;;;3.43;;
59770;SDS011;45649;53.014;6.600;2022-08-11T07:36:33;4.03;;;3.03;;
59770;SDS011;45649;53.014;6.600;2022-08-11T07:39:04;4.07;;;3.47;;
59770;SDS011;45649;53.014;6.600;2022-08-11T07:41:39;3.40;;;3.10;;
59770;SDS011;45649;53.014;6.600;2022-08-11T07:44:06;3.43;;;3.00;;
59770;SDS011;45649;53.014;6.600;2022-08-11T07:46:38;5.27;;;3.10;;
59770;SDS011;45649;53.014;6.600;2022-08-11T07:49:25;3.27;;;2.87;;
59770;SDS011;45649;53.014;6.600;2022-08-11T07:52:09;3.40;;;2.50;;
59770;SDS011;45649;53.014;6.600;2022-08-11T07:54:52;3.00;;;2.80;;
59770;SDS011;45649;53.014;6.600;2022-08-11T07:57:19;3.83;;;2.80;;
59770;SDS011;45649;53.014;6.600;2022-08-11T08:00:04;2.70;;;2.50;;
59770;SDS011;45649;53.014;6.600;2022-08-11T08:02:49;2.80;;;2.23;;
59770;SDS011;45649;53.014;6.600;2022-08-11T08:05:34;3.43;;;2.20;;
59770;SDS011;45649;53.014;6.600;2022-08-11T08:08:19;2.90;;;2.70;;
59770;SDS011;45649;53.014;6.600;2022-08-11T08:11:05;3.77;;;2.20;;
59770;SDS011;45649;53.014;6.600;2022-08-11T08:13:50;2.60;;;2.40;;
59770;SDS011;45649;53.014;6.600;2022-08-11T08:16:37;2.40;;;2.20;;
59770;SDS011;45649;53.014;6.600;2022-08-11T08:19:22;4.33;;;2.20;;
59770;SDS011;45649;53.014;6.600;2022-08-11T08:21:48;4.73;;;2.40;;
59770;SDS011;45649;53.014;6.600;2022-08-11T08:24:15;3.40;;;2.20;;
59770;SDS011;45649;53.014;6.600;2022-08-11T08:26:44;2.93;;;2.20;;
59770;SDS011;45649;53.014;6.600;2022-08-11T08:29:25;3.87;;;2.13;;
59770;SDS011;45649;53.014;6.600;2022-08-11T08:32:15;2.20;;;2.00;;
59770;SDS011;45649;53.014;6.600;2022-08-11T08:34:42;1.97;;;1.87;;
59770;SDS011;45649;53.014;6.600;2022-08-11T08:37:09;2.07;;;1.97;;
59770;SDS011;45649;53.014;6.600;2022-08-11T08:39:35;3.07;;;1.90;;
59770;SDS011;45649;53.014;6.600;2022-08-11T08:42:07;2.00;;;1.90;;
59770;SDS011;45649;53.014;6.600;2022-08-11T08:44:39;3.00;;;2.00;;
59770;SDS011;45649;53.014;6.600;2022-08-11T08:47:06;2.40;;;1.90;;
59770;SDS011;45649;53.014;6.600;2022-08-11T08:49:38;3.53;;;2.10;;
59770;SDS011;45649;53.014;6.600;2022-08-11T08:52:13;3.63;;;1.83;;
59770;SDS011;45649;53.014;6.600;2022-08-11T08:54:42;2.27;;;1.80;;
59770;SDS011;45649;53.014;6.600;2022-08-11T08:57:10;2.10;;;1.90;;
59770;SDS011;45649;53.014;6.600;2022-08-11T08:59:41;2.30;;;1.73;;
59770;SDS011;45649;53.014;6.600;2022-08-11T09:02:10;1.93;;;1.77;;
59770;SDS011;45649;53.014;6.600;2022-08-11T09:04:37;2.20;;;1.50;;
59770;SDS011;45649;53.014;6.600;2022-08-11T09:07:11;2.97;;;1.70;;
59770;SDS011;45649;53.014;6.600;2022-08-11T09:09:52;2.70;;;1.80;;
59770;SDS011;45649;53.014;6.600;2022-08-11T09:12:21;1.87;;;1.77;;
59770;SDS011;45649;53.014;6.600;2022-08-11T09:14:52;2.70;;;2.00;;
59770;SDS011;45649;53.014;6.600;2022-08-11T09:17:26;2.15;;;2.00;;
59770;SDS011;45649;53.014;6.600;2022-08-11T09:19:54;2.03;;;1.87;;
59770;SDS011;45649;53.014;6.600;2022-08-11T09:22:26;3.47;;;2.00;;
59770;SDS011;45649;53.014;6.600;2022-08-11T09:25:11;2.20;;;1.87;;
59770;SDS011;45649;53.014;6.600;2022-08-11T09:27:57;4.85;;;2.40;;
59770;SDS011;45649;53.014;6.600;2022-08-11T09:30:24;3.03;;;2.17;;
59770;SDS011;45649;53.014;6.600;2022-08-11T09:32:52;3.30;;;2.10;;
59770;SDS011;45649;53.014;6.600;2022-08-11T09:35:28;3.00;;;1.87;;
59770;SDS011;45649;53.014;6.600;2022-08-11T09:37:55;2.53;;;2.10;;
59770;SDS011;45649;53.014;6.600;2022-08-11T09:40:45;3.77;;;2.10;;
59770;SDS011;45649;53.014;6.600;2022-08-11T09:43:12;2.37;;;1.57;;
59770;SDS011;45649;53.014;6.600;2022-08-11T09:46:02;1.70;;;1.60;;
59770;SDS011;45649;53.014;6.600;2022-08-11T09:48:34;4.40;;;1.90;;
59770;SDS011;45649;53.014;6.600;2022-08-11T09:51:02;2.97;;;1.73;;
59770;SDS011;45649;53.014;6.600;2022-08-11T09:53:31;3.80;;;1.80;;
59770;SDS011;45649;53.014;6.600;2022-08-11T09:56:00;1.87;;;1.53;;
59770;SDS011;45649;53.014;6.600;2022-08-11T09:58:46;2.20;;;1.77;;
59770;SDS011;45649;53.014;6.600;2022-08-11T10:01:13;2.03;;;1.90;;
59770;SDS011;45649;53.014;6.600;2022-08-11T10:03:53;2.67;;;1.70;;
59770;SDS011;45649;53.014;6.600;2022-08-11T10:06:23;3.00;;;1.63;;
59770;SDS011;45649;53.014;6.600;2022-08-11T10:09:09;2.70;;;1.70;;
59770;SDS011;45649;53.014;6.600;2022-08-11T10:11:36;2.00;;;1.60;;
59770;SDS011;45649;53.014;6.600;2022-08-11T10:14:04;1.77;;;1.57;;
59770;SDS011;45649;53.014;6.600;2022-08-11T10:16:49;1.70;;;1.60;;
59770;SDS011;45649;53.014;6.600;2022-08-11T10:19:15;2.40;;;1.70;;
59770;SDS011;45649;53.014;6.600;2022-08-11T10:21:44;3.27;;;1.50;;
59770;SDS011;45649;53.014;6.600;2022-08-11T10:24:32;2.80;;;1.70;;
59770;SDS011;45649;53.014;6.600;2022-08-11T10:27:17;4.40;;;1.67;;
59770;SDS011;45649;53.014;6.600;2022-08-11T10:29:43;2.80;;;1.60;;
59770;SDS011;45649;53.014;6.600;2022-08-11T10:32:28;2.10;;;1.70;;
59770;SDS011;45649;53.014;6.600;2022-08-11T10:35:16;1.90;;;1.60;;
59770;SDS011;45649;53.014;6.600;2022-08-11T10:37:44;1.93;;;1.53;;
59770;SDS011;45649;53.014;6.600;2022-08-11T10:40:15;3.37;;;1.97;;
59770;SDS011;45649;53.014;6.600;2022-08-11T10:42:46;2.50;;;1.60;;
59770;SDS011;45649;53.014;6.600;2022-08-11T10:45:32;3.03;;;1.60;;
59770;SDS011;45649;53.014;6.600;2022-08-11T10:48:21;2.00;;;1.80;;
59770;SDS011;45649;53.014;6.600;2022-08-11T10:50:49;3.23;;;1.60;;
59770;SDS011;45649;53.014;6.600;2022-08-11T10:53:35;1.90;;;1.50;;
59770;SDS011;45649;53.014;6.600;2022-08-11T10:56:22;1.80;;;1.43;;
59770;SDS011;45649;53.014;6.600;2022-08-11T10:59:06;1.92;;;1.50;;
59770;SDS011;45649;53.014;6.600;2022-08-11T11:01:35;1.77;;;1.60;;
59770;SDS011;45649;53.014;6.600;2022-08-11T11:04:04;1.80;;;1.40;;
59770;SDS011;45649;53.014;6.600;2022-08-11T11:06:49;2.50;;;1.47;;
59770;SDS011;45649;53.014;6.600;2022-08-11T11:09:25;2.33;;;1.40;;
59770;SDS011;45649;53.014;6.600;2022-08-11T11:11:58;3.60;;;1.67;;
59770;SDS011;45649;53.014;6.600;2022-08-11T11:14:46;1.80;;;1.60;;
59770;SDS011;45649;53.014;6.600;2022-08-11T11:17:35;1.60;;;1.50;;
59770;SDS011;45649;53.014;6.600;2022-08-11T11:20:32;2.70;;;1.47;;
59770;SDS011;45649;53.014;6.600;2022-08-11T11:34:09;2.63;;;1.43;;
59770;SDS011;45649;53.014;6.600;2022-08-11T11:36:47;1.60;;;1.37;;
59770;SDS011;45649;53.014;6.600;2022-08-11T11:39:24;1.83;;;1.27;;
59770;SDS011;45649;53.014;6.600;2022-08-11T11:41:53;1.63;;;1.10;;
59770;SDS011;45649;53.014;6.600;2022-08-11T11:44:21;1.33;;;1.23;;
59770;SDS011;45649;53.014;6.600;2022-08-11T11:46:48;1.60;;;1.30;;
59770;SDS011;45649;53.014;6.600;2022-08-11T11:49:18;2.37;;;1.50;;
59770;SDS011;45649;53.014;6.600;2022-08-11T11:51:46;2.10;;;1.27;;
59770;SDS011;45649;53.014;6.600;2022-08-11T11:54:16;4.00;;;1.47;;
59770;SDS011;45649;53.014;6.600;2022-08-11T11:56:45;1.40;;;1.30;;
59770;SDS011;45649;53.014;6.600;2022-08-11T11:59:11;2.27;;;1.27;;
59770;SDS011;45649;53.014;6.600;2022-08-11T12:01:57;4.35;;;1.60;;
59770;SDS011;45649;53.014;6.600;2022-08-11T12:04:23;1.83;;;1.50;;
59770;SDS011;45649;53.014;6.600;2022-08-11T12:06:51;1.47;;;1.37;;
59770;SDS011;45649;53.014;6.600;2022-08-11T12:09:38;2.83;;;1.27;;
59770;SDS011;45649;53.014;6.600;2022-08-11T12:12:05;1.60;;;1.30;;
59770;SDS011;45649;53.014;6.600;2022-08-11T12:14:50;3.87;;;1.40;;
59770;SDS011;45649;53.014;6.600;2022-08-11T12:17:18;1.57;;;1.23;;
59770;SDS011;45649;53.014;6.600;2022-08-11T12:19:44;2.73;;;1.40;;
59770;SDS011;45649;53.014;6.600;2022-08-11T12:22:10;1.87;;;1.27;;
59770;SDS011;45649;53.014;6.600;2022-08-11T12:24:56;5.57;;;1.43;;
59770;SDS011;45649;53.014;6.600;2022-08-11T12:27:40;1.60;;;1.50;;
59770;SDS011;45649;53.014;6.600;2022-08-11T12:30:07;1.73;;;1.37;;
59770;SDS011;45649;53.014;6.600;2022-08-11T12:32:33;3.90;;;1.50;;
59770;SDS011;45649;53.014;6.600;2022-08-11T12:35:01;2.00;;;1.33;;
59770;SDS011;45649;53.014;6.600;2022-08-11T12:37:35;2.03;;;1.30;;
59770;SDS011;45649;53.014;6.600;2022-08-11T12:40:06;1.97;;;1.37;;
59770;SDS011;45649;53.014;6.600;2022-08-11T12:42:54;1.97;;;1.20;;
59770;SDS011;45649;53.014;6.600;2022-08-11T12:45:47;3.10;;;1.63;;
59770;SDS011;45649;53.014;6.600;2022-08-11T12:48:19;1.43;;;1.33;;
59770;SDS011;45649;53.014;6.600;2022-08-11T12:51:09;1.90;;;1.40;;
59770;SDS011;45649;53.014;6.600;2022-08-11T12:53:56;2.23;;;1.27;;
59770;SDS011;45649;53.014;6.600;2022-08-11T12:56:31;2.10;;;1.37;;
59770;SDS011;45649;53.014;6.600;2022-08-11T12:59:22;1.57;;;1.10;;
59770;SDS011;45649;53.014;6.600;2022-08-11T13:02:08;2.30;;;1.30;;
59770;SDS011;45649;53.014;6.600;2022-08-11T13:05:05;2.80;;;1.37;;
59770;SDS011;45649;53.014;6.600;2022-08-11T13:07:33;1.20;;;1.20;;
59770;SDS011;45649;53.014;6.600;2022-08-11T13:10:03;3.23;;;1.33;;
59770;SDS011;45649;53.014;6.600;2022-08-11T13:12:31;2.30;;;1.23;;
59770;SDS011;45649;53.014;6.600;2022-08-11T13:15:13;1.70;;;1.20;;
59770;SDS011;45649;53.014;6.600;2022-08-11T13:17:40;2.87;;;1.30;;
59770;SDS011;45649;53.014;6.600;2022-08-11T13:20:08;4.27;;;1.50;;
59770;SDS011;45649;53.014;6.600;2022-08-11T13:22:36;1.40;;;1.27;;
59770;SDS011;45649;53.014;6.600;2022-08-11T13:25:05;4.60;;;1.50;;
59770;SDS011;45649;53.014;6.600;2022-08-11T13:27:31;2.47;;;1.20;;
59770;SDS011;45649;53.014;6.600;2022-08-11T13:29:57;1.83;;;1.03;;
59770;SDS011;45649;53.014;6.600;2022-08-11T13:32:43;2.23;;;1.20;;
59770;SDS011;45649;53.014;6.600;2022-08-11T13:35:10;1.83;;;1.30;;
59770;SDS011;45649;53.014;6.600;2022-08-11T13:37:41;3.15;;;1.40;;
59770;SDS011;45649;53.014;6.600;2022-08-11T13:40:09;2.47;;;1.20;;
59770;SDS011;45649;53.014;6.600;2022-08-11T13:42:37;1.20;;;1.20;;
59770;SDS011;45649;53.014;6.600;2022-08-11T13:45:05;2.20;;;1.57;;
59770;SDS011;45649;53.014;6.600;2022-08-11T13:47:32;3.10;;;1.50;;
59770;SDS011;45649;53.014;6.600;2022-08-11T13:50:00;2.40;;;1.20;;
59770;SDS011;45649;53.014;6.600;2022-08-11T13:52:26;2.17;;;1.37;;
59770;SDS011;45649;53.014;6.600;2022-08-11T13:54:53;4.17;;;1.30;;
59770;SDS011;45649;53.014;6.600;2022-08-11T13:57:20;3.60;;;1.50;;
59770;SDS011;45649;53.014;6.600;2022-08-11T13:59:50;1.40;;;1.30;;
59770;SDS011;45649;53.014;6.600;2022-08-11T14:02:33;1.90;;;1.40;;
59770;SDS011;45649;53.014;6.600;2022-08-11T14:05:02;2.50;;;1.40;;
59770;SDS011;45649;53.014;6.600;2022-08-11T14:07:34;2.07;;;1.40;;
59770;SDS011;45649;53.014;6.600;2022-08-11T14:10:04;1.50;;;1.40;;
59770;SDS011;45649;53.014;6.600;2022-08-11T14:12:33;2.27;;;1.20;;
59770;SDS011;45649;53.014;6.600;2022-08-11T14:15:23;2.27;;;1.33;;
59770;SDS011;45649;53.014;6.600;2022-08-11T14:18:00;3.03;;;1.30;;
59770;SDS011;45649;53.014;6.600;2022-08-11T14:20:30;1.40;;;1.20;;
59770;SDS011;45649;53.014;6.600;2022-08-11T14:23:18;3.07;;;1.50;;
59770;SDS011;45649;53.014;6.600;2022-08-11T14:25:50;2.10;;;1.30;;
59770;SDS011;45649;53.014;6.600;2022-08-11T14:28:34;1.80;;;1.30;;
59770;SDS011;45649;53.014;6.600;2022-08-11T14:31:02;2.83;;;1.20;;
59770;SDS011;45649;53.014;6.600;2022-08-11T14:33:30;2.50;;;1.30;;
59770;SDS011;45649;53.014;6.600;2022-08-11T14:35:58;2.57;;;1.40;;
59770;SDS011;45649;53.014;6.600;2022-08-11T14:38:24;1.60;;;1.50;;
59770;SDS011;45649;53.014;6.600;2022-08-11T14:40:49;2.13;;;1.30;;
59770;SDS011;45649;53.014;6.600;2022-08-11T14:43:35;1.97;;;1.10;;
59770;SDS011;45649;53.014;6.600;2022-08-11T14:46:20;3.17;;;1.20;;
59770;SDS011;45649;53.014;6.600;2022-08-11T14:49:04;3.40;;;1.40;;
59770;SDS011;45649;53.014;6.600;2022-08-11T14:51:30;2.20;;;1.40;;
59770;SDS011;45649;53.014;6.600;2022-08-11T14:53:57;3.37;;;1.40;;
59770;SDS011;45649;53.014;6.600;2022-08-11T14:56:44;1.60;;;1.30;;
59770;SDS011;45649;53.014;6.600;2022-08-11T14:59:11;1.77;;;1.20;;
59770;SDS011;45649;53.014;6.600;2022-08-11T15:01:38;2.07;;;1.40;;
59770;SDS011;45649;53.014;6.600;2022-08-11T15:04:22;2.67;;;1.50;;
59770;SDS011;45649;53.014;6.600;2022-08-11T15:06:49;2.70;;;1.30;;
59770;SDS011;45649;53.014;6.600;2022-08-11T15:09:15;1.85;;;1.13;;
59770;SDS011;45649;53.014;6.600;2022-08-11T15:11:42;2.17;;;1.47;;
59770;SDS011;45649;53.014;6.600;2022-08-11T15:14:27;1.47;;;1.20;;
59770;SDS011;45649;53.014;6.600;2022-08-11T15:17:12;4.10;;;1.50;;
59770;SDS011;45649;53.014;6.600;2022-08-11T15:19:39;3.70;;;1.60;;
59770;SDS011;45649;53.014;6.600;2022-08-11T15:22:27;1.67;;;1.33;;
59770;SDS011;45649;53.014;6.600;2022-08-11T15:25:12;3.20;;;1.20;;
59770;SDS011;45649;53.014;6.600;2022-08-11T15:27:38;5.90;;;1.70;;
59770;SDS011;45649;53.014;6.600;2022-08-11T15:30:24;3.90;;;1.60;;
59770;SDS011;45649;53.014;6.600;2022-08-11T15:33:10;3.93;;;1.70;;
59770;SDS011;45649;53.014;6.600;2022-08-11T15:35:56;3.20;;;1.63;;
59770;SDS011;45649;53.014;6.600;2022-08-11T15:38:50;3.73;;;1.40;;
59770;SDS011;45649;53.014;6.600;2022-08-11T15:41:22;1.60;;;1.30;;
59770;SDS011;45649;53.014;6.600;2022-08-11T15:44:18;1.83;;;1.20;;
59770;SDS011;45649;53.014;6.600;2022-08-11T15:47:25;2.20;;;1.30;;
59770;SDS011;45649;53.014;6.600;2022-08-11T15:49:56;2.97;;;1.40;;
59770;SDS011;45649;53.014;6.600;2022-08-11T15:52:27;3.27;;;1.50;;
59770;SDS011;45649;53.014;6.600;2022-08-11T15:54:56;2.85;;;1.40;;
59770;SDS011;45649;53.014;6.600;2022-08-11T15:57:27;1.60;;;1.50;;
59770;SDS011;45649;53.014;6.600;2022-08-11T16:00:13;2.60;;;1.60;;
59770;SDS011;45649;53.014;6.600;2022-08-11T16:02:58;2.27;;;1.20;;
59770;SDS011;45649;53.014;6.600;2022-08-11T16:05:48;2.17;;;1.20;;
59770;SDS011;45649;53.014;6.600;2022-08-11T16:08:16;3.83;;;1.50;;
59770;SDS011;45649;53.014;6.600;2022-08-11T16:10:48;2.13;;;1.20;;
59770;SDS011;45649;53.014;6.600;2022-08-11T16:13:17;1.60;;;1.50;;
59770;SDS011;45649;53.014;6.600;2022-08-11T16:15:47;3.73;;;1.37;;
59770;SDS011;45649;53.014;6.600;2022-08-11T16:18:38;1.50;;;1.40;;
59770;SDS011;45649;53.014;6.600;2022-08-11T16:21:21;2.07;;;1.60;;
59770;SDS011;45649;53.014;6.600;2022-08-11T16:23:51;4.07;;;1.50;;
59770;SDS011;45649;53.014;6.600;2022-08-11T16:26:20;1.67;;;1.60;;
59770;SDS011;45649;53.014;6.600;2022-08-11T16:28:54;5.17;;;1.70;;
59770;SDS011;45649;53.014;6.600;2022-08-11T16:31:23;3.23;;;1.60;;
59770;SDS011;45649;53.014;6.600;2022-08-11T16:33:50;2.90;;;1.60;;
59770;SDS011;45649;53.014;6.600;2022-08-11T16:36:17;3.13;;;1.83;;
59770;SDS011;45649;53.014;6.600;2022-08-11T16:39:04;1.70;;;1.60;;
59770;SDS011;45649;53.014;6.600;2022-08-11T16:41:33;3.03;;;1.50;;
59770;SDS011;45649;53.014;6.600;2022-08-11T16:44:19;2.03;;;1.70;;
59770;SDS011;45649;53.014;6.600;2022-08-11T16:47:05;3.73;;;1.70;;
59770;SDS011;45649;53.014;6.600;2022-08-11T16:49:39;2.60;;;2.40;;
59770;SDS011;45649;53.014;6.600;2022-08-11T16:52:10;2.30;;;1.50;;
59770;SDS011;45649;53.014;6.600;2022-08-11T16:54:36;2.83;;;2.40;;
59770;SDS011;45649;53.014;6.600;2022-08-11T16:57:36;2.53;;;1.70;;
59770;SDS011;45649;53.014;6.600;2022-08-11T17:00:16;2.67;;;1.77;;
59770;SDS011;45649;53.014;6.600;2022-08-11T17:02:44;1.90;;;1.80;;
59770;SDS011;45649;53.014;6.600;2022-08-11T17:05:32;3.80;;;1.70;;
59770;SDS011;45649;53.014;6.600;2022-08-11T17:08:20;2.10;;;2.00;;
59770;SDS011;45649;53.014;6.600;2022-08-11T17:11:20;5.23;;;1.93;;
59770;SDS011;45649;53.014;6.600;2022-08-11T17:14:10;3.20;;;1.70;;
59770;SDS011;45649;53.014;6.600;2022-08-11T17:16:39;2.10;;;1.87;;
59770;SDS011;45649;53.014;6.600;2022-08-11T17:21:40;2.37;;;1.60;;
59770;SDS011;45649;53.014;6.600;2022-08-11T17:24:29;2.60;;;1.55;;
59770;SDS011;45649;53.014;6.600;2022-08-11T17:26:58;2.53;;;1.73;;
59770;SDS011;45649;53.014;6.600;2022-08-11T17:32:00;4.93;;;1.80;;
59770;SDS011;45649;53.014;6.600;2022-08-11T17:34:47;3.97;;;1.60;;
59770;SDS011;45649;53.014;6.600;2022-08-11T17:37:33;6.95;;;1.80;;
59770;SDS011;45649;53.014;6.600;2022-08-11T17:40:02;4.10;;;1.80;;
59770;SDS011;45649;53.014;6.600;2022-08-11T17:42:30;2.43;;;1.70;;
59770;SDS011;45649;53.014;6.600;2022-08-11T17:45:17;4.00;;;1.70;;
59770;SDS011;45649;53.014;6.600;2022-08-11T17:48:03;3.63;;;1.80;;
59770;SDS011;45649;53.014;6.600;2022-08-11T17:50:49;3.17;;;1.70;;
59770;SDS011;45649;53.014;6.600;2022-08-11T17:53:15;2.87;;;1.70;;
59770;SDS011;45649;53.014;6.600;2022-08-11T17:56:01;3.37;;;1.70;;
59770;SDS011;45649;53.014;6.600;2022-08-11T17:58:46;4.30;;;1.90;;
59770;SDS011;45649;53.014;6.600;2022-08-11T18:01:31;2.87;;;1.77;;
59770;SDS011;45649;53.014;6.600;2022-08-11T18:03:59;2.33;;;1.70;;
59770;SDS011;45649;53.014;6.600;2022-08-11T18:06:27;3.27;;;1.47;;
59770;SDS011;45649;53.014;6.600;2022-08-11T18:08:56;2.00;;;1.80;;
59770;SDS011;45649;53.014;6.600;2022-08-11T18:11:41;3.83;;;2.03;;
59770;SDS011;45649;53.014;6.600;2022-08-11T18:14:26;3.53;;;1.80;;
59770;SDS011;45649;53.014;6.600;2022-08-11T18:17:12;3.10;;;2.00;;
59770;SDS011;45649;53.014;6.600;2022-08-11T18:19:57;1.97;;;1.70;;
59770;SDS011;45649;53.014;6.600;2022-08-11T18:22:42;2.90;;;1.90;;
59770;SDS011;45649;53.014;6.600;2022-08-11T18:25:29;1.80;;;1.57;;
59770;SDS011;45649;53.014;6.600;2022-08-11T18:28:16;5.23;;;2.00;;
59770;SDS011;45649;53.014;6.600;2022-08-11T18:31:04;2.53;;;1.50;;
59770;SDS011;45649;53.014;6.600;2022-08-11T18:33:52;4.00;;;1.67;;
59770;SDS011;45649;53.014;6.600;2022-08-11T18:36:37;7.37;;;2.50;;
59770;SDS011;45649;53.014;6.600;2022-08-11T18:39:24;3.30;;;1.67;;
59770;SDS011;45649;53.014;6.600;2022-08-11T18:42:13;2.43;;;1.70;;
59770;SDS011;45649;53.014;6.600;2022-08-11T18:44:59;3.60;;;1.60;;
59770;SDS011;45649;53.014;6.600;2022-08-11T18:47:46;3.23;;;1.60;;
59770;SDS011;45649;53.014;6.600;2022-08-11T18:50:32;4.27;;;1.63;;
59770;SDS011;45649;53.014;6.600;2022-08-11T18:53:17;2.93;;;1.90;;
59770;SDS011;45649;53.014;6.600;2022-08-11T18:56:02;2.20;;;2.00;;
59770;SDS011;45649;53.014;6.600;2022-08-11T18:58:47;2.17;;;1.53;;
59770;SDS011;45649;53.014;6.600;2022-08-11T19:01:32;2.10;;;1.90;;
59770;SDS011;45649;53.014;6.600;2022-08-11T19:04:19;5.30;;;1.80;;
59770;SDS011;45649;53.014;6.600;2022-08-11T19:07:05;3.07;;;2.00;;
59770;SDS011;45649;53.014;6.600;2022-08-11T19:09:50;2.70;;;2.03;;
59770;SDS011;45649;53.014;6.600;2022-08-11T19:12:38;4.20;;;2.00;;
59770;SDS011;45649;53.014;6.600;2022-08-11T19:15:23;3.53;;;1.90;;
59770;SDS011;45649;53.014;6.600;2022-08-11T19:18:14;4.17;;;1.90;;
59770;SDS011;45649;53.014;6.600;2022-08-11T19:21:00;3.47;;;1.70;;
59770;SDS011;45649;53.014;6.600;2022-08-11T19:23:46;3.07;;;1.90;;
59770;SDS011;45649;53.014;6.600;2022-08-11T19:26:33;4.17;;;1.80;;
59770;SDS011;45649;53.014;6.600;2022-08-11T19:29:19;2.10;;;1.90;;
59770;SDS011;45649;53.014;6.600;2022-08-11T19:32:05;2.80;;;1.80;;
59770;SDS011;45649;53.014;6.600;2022-08-11T19:34:50;2.83;;;1.83;;
59770;SDS011;45649;53.014;6.600;2022-08-11T19:37:37;2.07;;;1.87;;
59770;SDS011;45649;53.014;6.600;2022-08-11T19:40:23;2.77;;;2.00;;
59770;SDS011;45649;53.014;6.600;2022-08-11T19:43:07;2.77;;;1.90;;
59770;SDS011;45649;53.014;6.600;2022-08-11T19:45:54;4.97;;;2.20;;
59770;SDS011;45649;53.014;6.600;2022-08-11T19:48:39;3.10;;;2.00;;
59770;SDS011;45649;53.014;6.600;2022-08-11T19:51:25;3.85;;;1.95;;
59770;SDS011;45649;53.014;6.600;2022-08-11T19:54:10;7.60;;;2.00;;
59770;SDS011;45649;53.014;6.600;2022-08-11T19:56:56;4.07;;;1.97;;